Time;durP1;ratioP1;P1;durP2;ratioP2;P2;SDS_P1;SDS_P2;PMS_P1;PMS_P2;Temp;Humidity;BMP_temperature;BMP_pressure;BME280_temperature;BME280_humidity;BME280_pressure;Samples;Min_cycle;Max_cycle;Signal;HPM_P1;HPM_P2
2023/08/16 00:01:49;;;;;;;2.92;0.65;;;18.80;81.20;;;;;;5046536;28;20028;-70
2023/08/16 00:04:16;;;;;;;2.15;0.57;;;19.20;78.70;;;;;;5044721;28;20017;-70
2023/08/16 00:06:44;;;;;;;3.67;0.52;;;19.80;77.50;;;;;;5041673;28;20112;-68
2023/08/16 00:09:11;;;;;;;1.85;0.40;;;20.30;76.60;;;;;;5042386;28;20029;-69
2023/08/16 00:11:38;;;;;;;2.97;0.63;;;20.70;73.50;;;;;;5051270;28;20526;-68
2023/08/16 00:14:06;;;;;;;3.70;0.60;;;20.60;71.70;;;;;;5047961;28;20074;-67
2023/08/16 00:16:33;;;;;;;1.35;0.40;;;20.00;72.40;;;;;;5041891;28;20532;-69
2023/08/16 00:19:01;;;;;;;2.80;0.63;;;20.10;73.60;;;;;;5050657;28;20031;-69
2023/08/16 00:21:28;;;;;;;2.20;0.55;;;21.10;69.00;;;;;;5044051;28;20029;-69
2023/08/16 00:23:55;;;;;;;2.08;0.70;;;21.50;67.80;;;;;;5042621;28;20494;-69
2023/08/16 00:26:23;;;;;;;1.70;0.80;;;22.70;66.50;;;;;;5056022;28;20049;-69
2023/08/16 00:28:50;;;;;;;4.50;0.68;;;22.50;64.40;;;;;;5051631;28;20509;-70
2023/08/16 00:31:20;;;;;;;3.33;0.55;;;22.50;68.10;;;;;;5042088;28;20055;-69
2023/08/16 00:33:47;;;;;;;1.60;0.50;;;22.50;67.10;;;;;;5047706;28;20142;-69
2023/08/16 00:36:15;;;;;;;3.63;0.50;;;23.10;64.90;;;;;;5047040;28;20019;-69
2023/08/16 00:38:45;;;;;;;0.75;0.40;;;23.20;61.70;;;;;;5048963;28;20024;-69
2023/08/16 00:41:13;;;;;;;7.57;0.80;;;23.10;63.10;;;;;;5051218;28;20520;-69
2023/08/16 00:43:41;;;;;;;24.80;3.72;;;23.20;56.70;;;;;;5045013;28;20482;-70
2023/08/16 00:46:12;;;;;;;12.02;2.03;;;23.40;60.80;;;;;;5048040;28;20025;-70
2023/08/16 00:48:42;;;;;;;5.35;0.88;;;23.90;60.50;;;;;;5047588;28;20459;-70
2023/08/16 00:51:14;;;;;;;2.47;0.60;;;23.60;62.10;;;;;;5046637;28;20473;-69
2023/08/16 00:53:42;;;;;;;3.58;0.40;;;23.80;62.40;;;;;;5050373;28;20604;-69
2023/08/16 00:56:10;;;;;;;1.75;0.60;;;24.60;60.40;;;;;;5039477;28;20032;-70
2023/08/16 00:58:37;;;;;;;2.20;0.55;;;24.60;58.90;;;;;;5046760;28;20025;-69
2023/08/16 01:01:05;;;;;;;5.57;0.60;;;24.00;60.30;;;;;;5050697;28;20497;-69
2023/08/16 01:03:33;;;;;;;1.33;0.40;;;23.80;58.90;;;;;;5043934;28;20028;-70
2023/08/16 01:06:00;;;;;;;2.33;0.50;;;24.10;59.90;;;;;;5045450;28;20044;-70
2023/08/16 01:08:27;;;;;;;4.45;0.60;;;23.90;61.40;;;;;;5041526;28;20736;-69
2023/08/16 01:11:25;;;;;;;1.50;0.60;;;24.50;61.50;;;;;;5036903;28;20035;-70
2023/08/16 01:14:05;;;;;;;3.17;0.77;;;24.90;60.60;;;;;;5037566;28;20049;-70
2023/08/16 01:16:36;;;;;;;1.58;0.70;;;25.40;57.10;;;;;;5041271;28;20228;-70
2023/08/16 01:19:14;;;;;;;1.52;0.75;;;25.30;56.60;;;;;;5042186;28;20060;-69
2023/08/16 01:21:48;;;;;;;1.95;0.50;;;25.20;57.20;;;;;;5033615;28;20557;-70
2023/08/16 01:24:24;;;;;;;0.90;0.63;;;25.60;58.20;;;;;;5029240;28;20112;-69
2023/08/16 01:26:53;;;;;;;2.15;0.40;;;26.10;56.00;;;;;;5047949;28;20053;-70
2023/08/16 01:29:22;;;;;;;1.05;0.50;;;25.50;55.90;;;;;;5042168;28;20119;-70
2023/08/16 01:31:49;;;;;;;2.95;0.47;;;24.10;56.10;;;;;;5058146;28;20513;-69
2023/08/16 01:34:17;;;;;;;5.30;0.95;;;23.20;55.80;;;;;;5049059;28;20232;-70
2023/08/16 01:36:44;;;;;;;1.05;0.30;;;23.00;59.20;;;;;;5047990;28;20048;-70
2023/08/16 01:39:12;;;;;;;4.53;0.47;;;23.10;61.80;;;;;;5051134;28;20174;-70
2023/08/16 01:41:46;;;;;;;3.42;0.70;;;24.20;57.50;;;;;;5041943;28;20451;-70
2023/08/16 01:44:15;;;;;;;9.82;1.60;;;24.70;58.40;;;;;;5043697;28;20056;-71
2023/08/16 01:46:43;;;;;;;9.25;1.25;;;25.00;58.50;;;;;;5042435;28;20040;-69
2023/08/16 01:49:11;;;;;;;3.10;0.50;;;24.90;57.50;;;;;;5047957;28;20046;-68
2023/08/16 01:51:38;;;;;;;1.02;0.38;;;24.90;56.80;;;;;;5036260;28;20049;-68
2023/08/16 01:54:06;;;;;;;0.80;0.30;;;25.40;56.40;;;;;;5037544;28;20024;-69
2023/08/16 01:56:33;;;;;;;7.28;0.70;;;23.60;58.30;;;;;;5048196;28;20029;-69
2023/08/16 01:59:01;;;;;;;2.28;0.50;;;23.10;60.90;;;;;;5037861;28;20021;-70
2023/08/16 02:01:28;;;;;;;3.67;0.40;;;23.40;60.60;;;;;;5033969;28;20033;-70
2023/08/16 02:03:55;;;;;;;2.70;0.40;;;23.10;61.10;;;;;;5031922;28;20071;-69
2023/08/16 02:06:23;;;;;;;4.43;0.88;;;23.40;59.90;;;;;;5045882;28;20107;-69
2023/08/16 02:08:51;;;;;;;3.28;0.40;;;22.90;60.80;;;;;;5040476;28;20079;-68
2023/08/16 02:11:20;;;;;;;2.45;0.40;;;23.00;60.00;;;;;;5043020;28;20032;-72
2023/08/16 02:13:48;;;;;;;3.20;0.60;;;23.30;61.60;;;;;;5037492;28;20035;-70
2023/08/16 02:16:16;;;;;;;3.25;0.55;;;22.30;61.30;;;;;;5042442;28;20031;-69
2023/08/16 02:18:43;;;;;;;2.00;0.40;;;22.30;60.70;;;;;;5046965;28;20040;-69
2023/08/16 02:21:10;;;;;;;1.98;0.43;;;22.90;57.00;;;;;;5044342;28;20032;-69
2023/08/16 02:23:41;;;;;;;1.23;0.50;;;22.10;61.20;;;;;;5047036;28;20140;-68
2023/08/16 02:26:08;;;;;;;1.25;0.60;;;21.90;59.30;;;;;;5025206;28;20398;-69
2023/08/16 02:28:36;;;;;;;2.45;0.52;;;21.20;60.80;;;;;;5040048;28;20055;-68
2023/08/16 02:31:06;;;;;;;2.58;0.43;;;20.60;62.10;;;;;;5045192;28;20711;-69
2023/08/16 02:33:34;;;;;;;3.28;0.40;;;19.90;65.20;;;;;;5046375;28;20177;-68
2023/08/16 02:36:04;;;;;;;2.22;0.50;;;19.60;63.70;;;;;;5031221;28;20144;-69
2023/08/16 02:38:31;;;;;;;1.85;0.40;;;19.60;66.80;;;;;;5019265;28;20022;-69
2023/08/16 02:40:58;;;;;;;2.90;0.40;;;19.90;68.10;;;;;;5049368;28;20024;-69
2023/08/16 02:43:26;;;;;;;0.75;0.43;;;21.10;65.70;;;;;;5051534;28;20039;-70
2023/08/16 02:45:54;;;;;;;3.17;0.90;;;21.10;61.20;;;;;;5049320;28;20021;-68
2023/08/16 02:48:21;;;;;;;2.40;0.55;;;22.00;63.50;;;;;;5046082;28;20076;-69
2023/08/16 02:50:52;;;;;;;2.15;0.40;;;22.40;63.40;;;;;;5032039;28;20028;-68
2023/08/16 02:53:20;;;;;;;1.30;0.45;;;22.20;56.10;;;;;;5032828;28;20087;-69
2023/08/16 02:55:47;;;;;;;1.88;0.43;;;22.20;58.90;;;;;;5030719;28;20024;-68
2023/08/16 02:58:14;;;;;;;6.70;0.47;;;22.30;61.40;;;;;;5037213;28;20074;-68
2023/08/16 03:00:42;;;;;;;2.05;0.43;;;22.50;58.70;;;;;;5026154;28;20552;-69
2023/08/16 03:03:09;;;;;;;1.42;0.80;;;22.80;59.70;;;;;;5037990;28;20075;-68
2023/08/16 03:05:37;;;;;;;1.40;0.50;;;22.60;58.30;;;;;;5046233;28;20033;-68
2023/08/16 03:08:04;;;;;;;1.17;0.57;;;22.50;58.40;;;;;;5044209;28;20036;-69
2023/08/16 03:10:33;;;;;;;1.70;0.50;;;22.60;57.60;;;;;;5047030;28;20055;-69
2023/08/16 03:13:01;;;;;;;2.70;0.70;;;22.80;59.00;;;;;;5024883;28;20029;-68
2023/08/16 03:15:28;;;;;;;2.42;0.30;;;22.80;58.50;;;;;;5043723;28;20025;-68
2023/08/16 03:17:56;;;;;;;2.13;0.45;;;22.70;60.30;;;;;;5051453;28;20043;-69
2023/08/16 03:20:23;;;;;;;0.88;0.40;;;23.10;60.70;;;;;;5034938;28;20036;-69
2023/08/16 03:22:51;;;;;;;2.03;0.60;;;23.40;57.50;;;;;;5038369;28;20059;-68
2023/08/16 03:25:18;;;;;;;2.53;0.30;;;23.10;58.70;;;;;;5036469;28;20044;-71
2023/08/16 03:27:45;;;;;;;2.17;0.55;;;23.20;58.50;;;;;;5035464;28;20053;-68
2023/08/16 03:30:13;;;;;;;3.10;0.40;;;23.20;57.80;;;;;;5033894;28;20025;-68
2023/08/16 03:32:40;;;;;;;0.73;0.30;;;23.10;58.40;;;;;;5044853;28;20056;-70
2023/08/16 03:35:08;;;;;;;1.45;0.20;;;23.00;58.80;;;;;;5037320;28;20037;-69
2023/08/16 03:37:38;;;;;;;1.02;0.22;;;22.80;57.20;;;;;;5042052;28;20621;-69
2023/08/16 03:40:07;;;;;;;1.50;0.40;;;22.30;57.10;;;;;;5045185;28;20505;-69
2023/08/16 03:42:34;;;;;;;0.50;0.30;;;21.90;57.70;;;;;;5046047;28;20029;-69
2023/08/16 03:45:02;;;;;;;2.25;0.40;;;21.60;59.30;;;;;;5056844;28;20365;-69
2023/08/16 03:47:29;;;;;;;0.63;0.38;;;21.20;61.60;;;;;;5046417;28;20120;-68
2023/08/16 03:49:59;;;;;;;1.52;0.50;;;21.20;59.80;;;;;;5055178;28;20025;-69
2023/08/16 03:52:27;;;;;;;0.95;0.20;;;21.10;59.40;;;;;;5045384;28;20037;-69
2023/08/16 03:54:54;;;;;;;2.65;0.30;;;21.10;59.80;;;;;;5040549;28;20094;-68
2023/08/16 03:57:24;;;;;;;3.15;0.30;;;21.00;60.40;;;;;;5048258;28;20032;-67
2023/08/16 03:59:52;;;;;;;1.33;0.30;;;20.90;60.10;;;;;;5046495;28;21916;-69
2023/08/16 04:02:21;;;;;;;0.52;0.35;;;20.50;55.50;;;;;;5040114;28;20033;-70
2023/08/16 04:04:53;;;;;;;3.20;0.40;;;20.70;61.80;;;;;;5048673;28;20025;-69
2023/08/16 04:07:21;;;;;;;1.00;0.35;;;20.80;60.10;;;;;;5048249;28;20028;-69
2023/08/16 04:09:48;;;;;;;0.52;0.28;;;20.90;59.90;;;;;;5049069;28;20496;-70
2023/08/16 04:12:16;;;;;;;0.82;0.30;;;21.30;57.70;;;;;;5054773;28;20083;-70
2023/08/16 04:14:43;;;;;;;10.02;0.52;;;21.50;59.30;;;;;;5057414;28;20173;-68
2023/08/16 04:17:10;;;;;;;2.85;0.40;;;21.20;59.60;;;;;;5042367;28;20060;-70
2023/08/16 04:19:38;;;;;;;0.63;0.25;;;21.20;57.50;;;;;;5049253;28;20039;-70
2023/08/16 04:22:05;;;;;;;0.82;0.22;;;20.70;58.30;;;;;;5043154;28;20021;-70
2023/08/16 04:24:33;;;;;;;3.15;0.40;;;20.50;52.10;;;;;;5046759;28;20123;-69
2023/08/16 04:27:00;;;;;;;1.00;0.30;;;20.70;58.00;;;;;;5040134;28;20177;-70
2023/08/16 04:29:28;;;;;;;3.05;0.25;;;21.00;52.20;;;;;;5050456;28;20048;-70
2023/08/16 04:31:56;;;;;;;0.55;0.20;;;21.30;55.00;;;;;;5046535;28;20128;-70
2023/08/16 04:34:23;;;;;;;0.57;0.20;;;21.30;55.60;;;;;;5051074;28;20452;-70
2023/08/16 04:36:51;;;;;;;1.02;0.30;;;21.20;56.70;;;;;;5063386;28;20029;-69
2023/08/16 04:39:18;;;;;;;0.85;0.20;;;21.20;56.00;;;;;;5054010;28;20419;-69
2023/08/16 04:41:46;;;;;;;1.08;0.32;;;21.20;57.10;;;;;;5039599;28;20389;-71
2023/08/16 04:44:13;;;;;;;0.50;0.20;;;20.80;57.00;;;;;;5034057;28;20024;-70
2023/08/16 04:46:41;;;;;;;3.95;0.40;;;20.80;56.50;;;;;;5040473;28;20078;-69
2023/08/16 04:49:08;;;;;;;0.77;0.40;;;20.30;57.80;;;;;;5053251;28;20032;-69
2023/08/16 04:51:37;;;;;;;1.23;0.25;;;20.30;58.70;;;;;;5031209;28;20026;-70
2023/08/16 04:54:04;;;;;;;1.27;0.40;;;20.60;57.80;;;;;;5041860;28;20088;-70
2023/08/16 04:56:31;;;;;;;0.20;0.10;;;20.60;57.20;;;;;;5032530;28;20047;-70
2023/08/16 04:58:59;;;;;;;1.77;0.32;;;20.40;58.50;;;;;;5033030;28;20033;-69
2023/08/16 05:01:26;;;;;;;0.95;0.25;;;20.50;57.60;;;;;;5041046;28;20036;-70
2023/08/16 05:03:54;;;;;;;1.45;0.20;;;20.50;58.90;;;;;;5041138;28;20040;-70
2023/08/16 05:06:21;;;;;;;0.52;0.30;;;20.20;50.30;;;;;;5048929;28;20028;-69
2023/08/16 05:08:49;;;;;;;2.50;0.28;;;20.10;51.50;;;;;;5051503;28;20025;-71
2023/08/16 05:11:16;;;;;;;0.50;0.20;;;19.90;57.30;;;;;;5045046;28;20414;-68
2023/08/16 05:13:43;;;;;;;2.70;0.35;;;19.90;57.20;;;;;;5042705;28;20037;-69
2023/08/16 05:16:10;;;;;;;1.80;0.32;;;19.60;57.50;;;;;;5033684;28;20029;-69
2023/08/16 05:18:38;;;;;;;0.35;0.20;;;19.50;58.50;;;;;;5047452;28;20032;-69
2023/08/16 05:21:05;;;;;;;0.80;0.20;;;19.60;58.50;;;;;;5036983;28;20071;-69
2023/08/16 05:23:35;;;;;;;1.00;0.30;;;19.70;58.20;;;;;;5047022;28;20069;-68
2023/08/16 05:26:03;;;;;;;5.30;0.50;;;19.60;59.40;;;;;;5054495;28;20060;-69
2023/08/16 05:28:30;;;;;;;1.23;0.25;;;19.60;60.30;;;;;;5048099;28;20040;-69
2023/08/16 05:31:10;;;;;;;1.05;0.43;;;19.60;60.90;;;;;;5063694;28;20052;-69
2023/08/16 05:33:38;;;;;;;0.82;0.25;;;19.60;61.00;;;;;;5044234;28;20045;-68
2023/08/16 05:36:07;;;;;;;2.58;0.40;;;19.60;59.50;;;;;;5054271;28;20033;-68
2023/08/16 05:38:34;;;;;;;3.17;0.32;;;19.70;60.40;;;;;;5062383;28;20075;-68
2023/08/16 05:41:05;;;;;;;2.78;0.52;;;20.10;60.50;;;;;;5060278;28;20029;-68
2023/08/16 05:43:33;;;;;;;3.53;0.40;;;20.50;59.70;;;;;;5052560;28;20020;-68
2023/08/16 05:46:00;;;;;;;0.30;0.20;;;20.60;58.50;;;;;;5052589;28;20025;-68
2023/08/16 05:48:28;;;;;;;0.55;0.20;;;20.50;53.20;;;;;;5055571;28;20028;-68
2023/08/16 05:50:55;;;;;;;0.93;0.35;;;20.20;56.30;;;;;;5055523;28;20029;-67
2023/08/16 05:53:22;;;;;;;1.02;0.40;;;19.80;56.30;;;;;;5055288;28;20128;-68
2023/08/16 05:55:50;;;;;;;2.78;0.40;;;19.80;57.00;;;;;;5030105;28;20029;-67
2023/08/16 05:58:17;;;;;;;0.47;0.20;;;20.10;56.70;;;;;;5035859;28;20052;-70
2023/08/16 06:00:49;;;;;;;0.63;0.15;;;20.20;53.00;;;;;;5041565;28;20028;-69
2023/08/16 06:03:16;;;;;;;1.35;0.30;;;20.10;55.10;;;;;;5044464;28;20529;-68
2023/08/16 06:05:43;;;;;;;2.95;0.20;;;20.20;55.30;;;;;;5051572;28;20017;-68
2023/08/16 06:08:10;;;;;;;0.63;0.32;;;20.30;56.50;;;;;;5039600;28;20465;-68
2023/08/16 06:10:38;;;;;;;2.63;0.32;;;20.20;53.90;;;;;;5045033;28;20037;-69
2023/08/16 06:13:05;;;;;;;0.82;0.40;;;20.00;49.60;;;;;;5049174;28;20036;-69
2023/08/16 06:15:32;;;;;;;2.72;0.55;;;20.00;56.90;;;;;;5043993;28;20029;-69
2023/08/16 06:18:00;;;;;;;1.42;0.52;;;19.80;56.30;;;;;;5040055;28;20029;-70
2023/08/16 06:20:27;;;;;;;0.82;0.28;;;19.80;55.90;;;;;;5040471;28;20025;-69
2023/08/16 06:22:54;;;;;;;1.23;0.40;;;19.90;53.00;;;;;;5040474;28;20040;-70
2023/08/16 06:25:22;;;;;;;1.85;0.40;;;19.90;55.70;;;;;;5042398;28;20350;-69
2023/08/16 06:27:49;;;;;;;0.82;0.30;;;19.90;57.00;;;;;;5048177;28;20041;-70
2023/08/16 06:30:17;;;;;;;0.20;0.15;;;19.60;49.60;;;;;;5044096;28;20020;-72
2023/08/16 06:32:45;;;;;;;2.40;0.40;;;19.50;57.90;;;;;;5055049;28;20186;-69
2023/08/16 06:35:12;;;;;;;2.95;0.40;;;19.60;56.50;;;;;;5048142;28;20029;-70
2023/08/16 06:37:40;;;;;;;3.47;1.30;;;19.60;59.10;;;;;;5061812;28;20068;-69
2023/08/16 06:40:08;;;;;;;2.75;0.60;;;19.40;70.30;;;;;;5040609;28;20039;-70
2023/08/16 06:42:36;;;;;;;2.90;0.80;;;19.00;70.60;;;;;;5055446;28;20025;-69
2023/08/16 06:45:03;;;;;;;2.33;0.80;;;18.70;66.20;;;;;;5058630;28;20032;-69
2023/08/16 06:47:31;;;;;;;3.47;0.65;;;18.60;73.30;;;;;;5036228;28;20031;-69
2023/08/16 06:49:58;;;;;;;7.13;0.90;;;18.60;74.70;;;;;;5042962;28;20323;-70
2023/08/16 06:52:25;;;;;;;7.80;0.70;;;18.40;69.20;;;;;;5048028;28;20045;-68
2023/08/16 06:54:53;;;;;;;2.97;0.60;;;18.50;73.00;;;;;;5052993;28;20087;-68
2023/08/16 06:57:20;;;;;;;4.30;0.70;;;18.50;76.40;;;;;;5041729;28;20033;-69
2023/08/16 06:59:48;;;;;;;3.85;0.70;;;18.50;77.90;;;;;;5048493;28;20025;-70
2023/08/16 07:02:15;;;;;;;2.35;0.65;;;18.30;78.20;;;;;;5047303;28;20021;-68
2023/08/16 07:04:43;;;;;;;6.72;1.40;;;18.30;74.80;;;;;;5038663;28;20029;-68
2023/08/16 07:07:11;;;;;;;0.70;0.45;;;18.20;79.60;;;;;;5035920;28;20119;-69
2023/08/16 07:09:40;;;;;;;2.65;0.80;;;18.10;79.00;;;;;;5043882;28;20040;-68
2023/08/16 07:12:08;;;;;;;4.15;0.88;;;17.80;75.40;;;;;;5048834;28;20048;-68
2023/08/16 07:14:36;;;;;;;9.50;1.30;;;17.70;80.00;;;;;;5036158;28;20036;-69
2023/08/16 07:17:05;;;;;;;13.40;1.50;;;17.60;83.30;;;;;;5031080;28;20052;-68
2023/08/16 07:19:32;;;;;;;9.20;1.23;;;17.50;77.40;;;;;;5036845;28;20040;-67
2023/08/16 07:21:59;;;;;;;19.98;2.03;;;17.50;80.20;;;;;;5040507;28;20481;-68
2023/08/16 07:24:27;;;;;;;6.55;1.23;;;17.30;84.20;;;;;;5038366;28;20417;-68
2023/08/16 07:26:54;;;;;;;6.28;0.63;;;17.40;84.50;;;;;;5034623;28;20600;-68
2023/08/16 07:29:22;;;;;;;2.08;0.73;;;17.20;81.60;;;;;;5045167;28;21057;-67
2023/08/16 07:31:51;;;;;;;5.30;0.95;;;17.20;84.50;;;;;;5016314;28;20072;-70
2023/08/16 07:34:18;;;;;;;5.40;0.95;;;17.10;80.50;;;;;;5032745;28;20068;-67
2023/08/16 07:36:45;;;;;;;5.60;1.08;;;16.90;81.50;;;;;;5054068;28;20029;-67
2023/08/16 07:39:12;;;;;;;2.75;0.70;;;16.80;82.30;;;;;;5048824;28;20032;-68
2023/08/16 07:41:40;;;;;;;5.75;0.98;;;16.70;84.30;;;;;;5057908;28;20200;-68
2023/08/16 07:44:09;;;;;;;5.20;0.57;;;16.50;83.90;;;;;;5045321;28;20028;-68
2023/08/16 07:46:36;;;;;;;4.25;1.00;;;16.50;88.00;;;;;;5048728;28;20028;-70
2023/08/16 07:49:04;;;;;;;6.30;1.42;;;16.60;89.70;;;;;;5053289;28;20123;-69
2023/08/16 07:51:31;;;;;;;17.73;2.20;;;16.30;86.20;;;;;;5050310;28;20106;-68
2023/08/16 07:53:59;;;;;;;4.95;2.47;;;16.30;86.90;;;;;;5044370;28;20366;-69
2023/08/16 07:56:26;;;;;;;8.73;1.40;;;16.20;87.50;;;;;;5045104;28;20128;-68
2023/08/16 07:58:53;;;;;;;9.98;1.90;;;16.10;91.10;;;;;;5050081;28;20418;-69
2023/08/16 08:01:21;;;;;;;16.98;2.30;;;16.10;91.00;;;;;;5051973;28;20032;-69
2023/08/16 08:03:48;;;;;;;10.25;1.20;;;15.90;88.70;;;;;;5038595;28;20468;-69
2023/08/16 08:06:16;;;;;;;12.13;1.92;;;15.90;89.00;;;;;;5044705;28;20063;-68
2023/08/16 08:08:43;;;;;;;15.25;2.67;;;15.80;89.00;;;;;;5048562;28;20031;-70
2023/08/16 08:11:10;;;;;;;15.20;4.97;;;15.70;89.50;;;;;;5042635;28;20151;-68
2023/08/16 08:13:38;;;;;;;12.90;5.65;;;15.70;92.40;;;;;;5038666;28;20052;-68
2023/08/16 08:16:07;;;;;;;30.05;14.77;;;15.50;90.10;;;;;;5047815;28;20035;-68
2023/08/16 08:18:34;;;;;;;29.80;14.48;;;15.50;90.20;;;;;;5051533;28;20033;-68
2023/08/16 08:21:02;;;;;;;7.93;2.83;;;15.40;91.80;;;;;;5046372;28;20111;-68
2023/08/16 08:23:29;;;;;;;5.78;3.08;;;15.30;92.20;;;;;;5040358;28;20036;-68
2023/08/16 08:25:57;;;;;;;4.50;1.23;;;15.20;92.60;;;;;;5052752;28;20060;-68
2023/08/16 08:28:24;;;;;;;5.50;1.17;;;15.20;93.90;;;;;;5049973;28;20025;-68
2023/08/16 08:30:51;;;;;;;9.48;1.25;;;15.30;93.20;;;;;;5059503;28;20071;-68
2023/08/16 08:33:19;;;;;;;3.22;0.85;;;15.10;91.10;;;;;;5047433;28;20123;-69
2023/08/16 08:35:47;;;;;;;2.92;0.98;;;15.10;91.00;;;;;;5060482;28;20354;-68
2023/08/16 08:38:14;;;;;;;2.70;0.90;;;15.10;91.10;;;;;;5044172;28;20025;-68
2023/08/16 08:40:41;;;;;;;4.05;0.70;;;15.00;91.20;;;;;;5056495;28;20230;-68
2023/08/16 08:43:11;;;;;;;2.78;0.95;;;15.00;91.40;;;;;;5045510;28;20028;-68
2023/08/16 08:45:39;;;;;;;4.30;0.88;;;14.80;91.40;;;;;;5059610;28;20033;-68
2023/08/16 08:48:08;;;;;;;4.28;0.85;;;14.80;91.50;;;;;;5035409;28;20642;-69
2023/08/16 08:50:38;;;;;;;1.92;0.95;;;14.70;91.80;;;;;;5032054;28;20025;-68
2023/08/16 08:53:05;;;;;;;2.53;1.13;;;14.50;92.10;;;;;;5053951;28;20040;-68
2023/08/16 08:55:33;;;;;;;3.38;1.00;;;14.50;92.40;;;;;;5059484;28;20058;-68
2023/08/16 08:58:02;;;;;;;3.75;1.27;;;14.50;92.40;;;;;;5049444;28;20031;-68
2023/08/16 09:00:37;;;;;;;3.28;1.30;;;14.40;94.90;;;;;;5060823;28;20431;-68
2023/08/16 09:03:08;;;;;;;7.45;1.75;;;14.30;95.00;;;;;;5040482;28;20116;-68
2023/08/16 09:05:39;;;;;;;2.72;1.08;;;14.10;92.90;;;;;;5052760;28;20029;-68
2023/08/16 09:08:09;;;;;;;3.35;1.48;;;14.20;95.10;;;;;;5051167;28;20025;-69
2023/08/16 09:10:41;;;;;;;4.57;1.00;;;14.00;93.10;;;;;;5052825;28;20041;-68
2023/08/16 09:13:12;;;;;;;3.88;1.25;;;14.00;95.50;;;;;;5051625;28;20045;-68
2023/08/16 09:15:40;;;;;;;3.92;1.10;;;13.80;93.60;;;;;;5065134;28;20127;-69
2023/08/16 09:18:07;;;;;;;4.63;1.50;;;13.80;94.60;;;;;;5058470;28;20064;-69
2023/08/16 09:20:35;;;;;;;5.93;1.40;;;13.80;94.80;;;;;;5061346;28;20059;-68
2023/08/16 09:23:02;;;;;;;6.60;1.35;;;13.80;93.30;;;;;;5058162;28;20372;-68
2023/08/16 09:25:30;;;;;;;2.97;1.27;;;13.80;95.90;;;;;;5059062;28;20039;-68
2023/08/16 09:27:58;;;;;;;8.48;1.88;;;13.60;93.80;;;;;;5052455;28;20123;-68
2023/08/16 09:30:30;;;;;;;4.88;1.48;;;13.50;93.80;;;;;;5058085;28;20019;-67
2023/08/16 09:32:57;;;;;;;5.03;1.60;;;13.50;94.20;;;;;;5053394;28;20032;-68
2023/08/16 09:35:38;;;;;;;5.07;1.88;;;13.50;94.00;;;;;;5069479;28;20382;-68
2023/08/16 09:38:05;;;;;;;5.05;1.90;;;13.60;94.10;;;;;;5058101;28;20033;-67
2023/08/16 09:40:32;;;;;;;4.30;1.63;;;13.60;96.30;;;;;;5059711;28;20461;-67
2023/08/16 09:43:01;;;;;;;4.70;1.60;;;13.50;94.30;;;;;;5049992;28;20070;-67
2023/08/16 09:45:32;;;;;;;5.95;2.55;;;13.50;94.60;;;;;;5060204;28;20082;-68
2023/08/16 09:48:01;;;;;;;4.28;2.00;;;13.70;94.50;;;;;;5053034;28;20037;-69
2023/08/16 09:50:29;;;;;;;9.18;2.55;;;13.70;96.20;;;;;;5052083;28;20025;-68
2023/08/16 09:52:58;;;;;;;14.63;5.90;;;13.60;94.50;;;;;;5051318;28;20079;-67
2023/08/16 09:55:30;;;;;;;13.13;6.18;;;13.50;94.30;;;;;;5053019;28;20040;-69
2023/08/16 09:57:59;;;;;;;13.57;4.95;;;13.40;94.70;;;;;;5049301;28;20036;-68
2023/08/16 10:00:28;;;;;;;9.50;4.50;;;13.40;94.70;;;;;;5046657;28;20107;-68
2023/08/16 10:02:58;;;;;;;7.00;3.45;;;13.40;96.10;;;;;;5051225;28;20028;-69
2023/08/16 10:05:28;;;;;;;8.82;3.53;;;13.60;94.70;;;;;;5045201;28;20129;-69
2023/08/16 10:08:00;;;;;;;8.07;3.50;;;13.60;94.70;;;;;;5020370;28;20335;-70
2023/08/16 10:10:30;;;;;;;4.72;3.00;;;13.50;94.70;;;;;;5040000;28;20106;-68
2023/08/16 10:12:59;;;;;;;6.57;2.95;;;13.40;95.30;;;;;;5039755;28;20033;-69
2023/08/16 10:15:34;;;;;;;8.20;3.72;;;13.60;97.40;;;;;;5037481;28;20025;-69
2023/08/16 10:18:06;;;;;;;8.77;3.58;;;13.60;97.20;;;;;;5006522;28;20861;-69
2023/08/16 10:20:37;;;;;;;11.10;3.97;;;13.50;97.50;;;;;;5002790;28;20645;-68
2023/08/16 10:23:07;;;;;;;7.40;4.55;;;13.30;95.90;;;;;;5052065;28;20032;-68
2023/08/16 10:25:55;;;;;;;10.30;4.40;;;13.20;97.10;;;;;;5044697;28;20092;-68
2023/08/16 10:28:25;;;;;;;8.20;4.13;;;12.90;96.70;;;;;;5049578;28;20481;-68
2023/08/16 10:30:56;;;;;;;9.07;3.97;;;12.80;97.90;;;;;;5054897;28;20040;-68
2023/08/16 10:33:44;;;;;;;9.82;5.13;;;12.60;98.10;;;;;;5049680;28;20032;-68
2023/08/16 10:36:12;;;;;;;10.38;4.95;;;12.40;95.90;;;;;;5053603;28;20052;-68
2023/08/16 10:38:44;;;;;;;9.10;5.03;;;12.40;98.10;;;;;;5037938;28;20037;-69
2023/08/16 10:41:15;;;;;;;7.40;4.47;;;12.30;97.90;;;;;;5053238;28;20028;-69
2023/08/16 10:43:47;;;;;;;9.68;4.57;;;12.10;96.20;;;;;;5055399;28;20056;-69
2023/08/16 10:46:31;;;;;;;7.22;4.20;;;12.10;98.30;;;;;;5041964;28;20045;-67
2023/08/16 10:49:00;;;;;;;9.52;4.88;;;12.10;96.10;;;;;;5038145;28;20041;-67
2023/08/16 10:51:28;;;;;;;11.70;5.95;;;12.10;98.00;;;;;;5055549;28;20358;-68
2023/08/16 10:54:00;;;;;;;14.77;5.35;;;12.00;99.00;;;;;;5056772;28;20048;-69
2023/08/16 10:56:44;;;;;;;11.60;5.45;;;11.80;96.70;;;;;;5045045;28;20385;-69
2023/08/16 10:59:12;;;;;;;12.30;5.70;;;11.90;99.60;;;;;;5048017;28;20036;-67
2023/08/16 11:01:53;;;;;;;9.48;5.80;;;11.90;99.00;;;;;;5047648;28;20114;-68
2023/08/16 11:04:21;;;;;;;9.35;5.43;;;11.70;99.00;;;;;;5049130;28;20055;-68
2023/08/16 11:06:50;;;;;;;9.38;5.32;;;11.70;98.90;;;;;;5042153;28;20033;-69
2023/08/16 11:09:18;;;;;;;9.88;5.63;;;11.60;96.90;;;;;;5043170;28;22563;-68
2023/08/16 11:11:45;;;;;;;11.80;5.82;;;11.70;98.70;;;;;;5048882;28;20030;-69
2023/08/16 11:14:13;;;;;;;15.13;5.90;;;11.50;96.70;;;;;;5046082;28;20025;-67
2023/08/16 11:16:40;;;;;;;15.90;5.60;;;11.40;97.10;;;;;;5047938;28;21244;-67
2023/08/16 11:19:08;;;;;;;10.90;5.40;;;11.50;99.40;;;;;;5046981;28;20371;-68
2023/08/16 11:21:38;;;;;;;12.75;5.60;;;11.30;97.00;;;;;;5045126;28;20040;-68
2023/08/16 11:24:09;;;;;;;16.23;5.85;;;11.30;99.30;;;;;;5052576;28;20197;-68
2023/08/16 11:26:40;;;;;;;11.45;5.88;;;11.20;97.30;;;;;;5056999;28;20049;-67
2023/08/16 11:29:08;;;;;;;13.10;5.97;;;11.10;97.50;;;;;;5046518;28;20037;-67
2023/08/16 11:31:36;;;;;;;9.68;5.50;;;11.10;98.10;;;;;;5048538;28;20057;-68
2023/08/16 11:34:11;;;;;;;9.93;4.60;;;11.00;97.50;;;;;;5051662;28;20037;-68
2023/08/16 11:36:41;;;;;;;8.45;4.25;;;11.10;99.70;;;;;;5043432;28;20029;-68
2023/08/16 11:39:08;;;;;;;9.50;4.38;;;11.10;97.50;;;;;;5046181;28;20047;-67
2023/08/16 11:41:36;;;;;;;7.65;3.40;;;11.10;96.90;;;;;;5046583;28;20108;-68
2023/08/16 11:44:04;;;;;;;13.18;3.00;;;11.00;96.90;;;;;;5062109;28;20017;-67
2023/08/16 11:46:47;;;;;;;6.55;2.75;;;10.90;97.10;;;;;;5034087;28;20514;-68
2023/08/16 11:49:14;;;;;;;8.00;2.80;;;11.00;99.30;;;;;;5044876;28;20466;-68
2023/08/16 11:51:43;;;;;;;6.13;2.83;;;10.80;97.00;;;;;;5046264;28;20488;-68
2023/08/16 11:54:23;;;;;;;5.95;3.35;;;10.80;99.10;;;;;;5049835;28;20033;-67
2023/08/16 11:56:53;;;;;;;8.00;3.33;;;10.70;97.30;;;;;;5044418;28;20466;-67
2023/08/16 11:59:34;;;;;;;5.50;3.00;;;10.60;97.30;;;;;;5056362;28;20035;-67
2023/08/16 12:02:08;;;;;;;6.13;2.72;;;10.70;99.30;;;;;;5047545;28;20127;-68
2023/08/16 12:04:42;;;;;;;8.20;3.55;;;10.70;97.90;;;;;;5054830;28;20060;-69
2023/08/16 12:07:12;;;;;;;6.15;3.35;;;10.80;99.90;;;;;;5046573;28;20036;-69
2023/08/16 12:09:42;;;;;;;11.10;3.97;;;10.90;99.90;;;;;;5049108;28;20041;-68
2023/08/16 12:12:10;;;;;;;12.45;3.75;;;10.80;99.90;;;;;;5047928;28;20071;-68
2023/08/16 12:14:38;;;;;;;9.40;4.70;;;10.80;99.90;;;;;;5049328;28;20055;-68
2023/08/16 12:17:05;;;;;;;12.05;3.65;;;10.60;98.00;;;;;;5045861;28;20029;-68
2023/08/16 12:19:32;;;;;;;16.00;4.90;;;10.50;98.20;;;;;;5040893;28;20055;-68
2023/08/16 12:22:00;;;;;;;12.95;5.00;;;10.60;99.90;;;;;;5049380;28;20025;-68
2023/08/16 12:24:27;;;;;;;12.93;6.40;;;10.60;98.60;;;;;;5045291;28;20029;-69
2023/08/16 12:26:55;;;;;;;17.77;10.05;;;10.70;99.90;;;;;;5060914;28;20049;-68
2023/08/16 12:29:21;;;;;;;;;;;10.60;98.50;;;;;;5052711;28;20033;-69
2023/08/16 12:31:48;;;;;;;24.40;11.30;;;10.60;98.30;;;;;;5033927;28;20338;-69
2023/08/16 12:34:15;;;;;;;;;;;10.50;99.90;;;;;;5044704;28;20386;-69
2023/08/16 12:36:43;;;;;;;19.02;8.32;;;10.40;98.40;;;;;;5039599;28;20695;-68
2023/08/16 12:39:10;;;;;;;14.93;8.13;;;10.40;99.90;;;;;;5070020;28;20070;-69
2023/08/16 12:41:36;;;;;;;;;;;10.30;99.90;;;;;;5046737;28;20112;-68
2023/08/16 12:44:04;;;;;;;12.85;8.50;;;10.30;99.90;;;;;;5047688;28;19952;-69
2023/08/16 12:46:31;;;;;;;11.95;7.85;;;10.40;99.90;;;;;;5040204;28;20037;-69
2023/08/16 12:48:59;;;;;;;;;;;10.30;99.90;;;;;;5045533;28;20033;-69
2023/08/16 12:51:26;;;;;;;9.98;6.93;;;10.20;99.50;;;;;;5036346;28;20435;-69
2023/08/16 12:53:53;;;;;;;11.15;7.13;;;10.30;99.90;;;;;;5040629;28;20509;-69